createdAt,value
2022-08-07T09:16:22.942Z,36.31
2022-08-07T09:18:30.612Z,36.30
2022-08-07T09:20:58.324Z,36.33
2022-08-07T09:24:33.140Z,36.37
2022-08-07T09:25:54.664Z,36.17
2022-08-07T09:30:04.645Z,35.92
2022-08-07T09:30:44.246Z,36.22
2022-08-07T09:33:16.690Z,36.42
2022-08-07T09:36:03.506Z,36.46
2022-08-07T09:38:01.919Z,36.58
2022-08-07T09:40:28.352Z,36.69
2022-08-07T09:42:54.715Z,36.83
2022-08-07T09:47:51.687Z,36.88
2022-08-07T09:47:57.883Z,36.95
2022-08-07T09:50:19.671Z,37.05
2022-08-07T09:52:40.314Z,37.17
2022-08-07T09:55:06.673Z,37.30
2022-08-07T09:57:36.539Z,37.29
2022-08-07T10:00:01.402Z,37.34
2022-08-07T10:02:29.590Z,37.36
2022-08-07T10:04:53.123Z,37.32
2022-08-07T10:07:25.751Z,37.37
2022-08-07T10:09:59.064Z,37.49
2022-08-07T10:12:18.155Z,37.62
2022-08-07T10:14:37.744Z,37.72
2022-08-07T10:17:04.102Z,37.64
2022-08-07T10:19:30.483Z,37.62
2022-08-07T10:22:15.811Z,37.63
2022-08-07T10:24:23.222Z,37.78
2022-08-07T10:26:53.379Z,37.68
2022-08-07T10:29:15.971Z,37.71
2022-08-07T10:31:42.354Z,37.77
2022-08-07T10:34:15.108Z,37.93
2022-08-07T10:36:36.160Z,37.99
2022-08-07T10:39:01.492Z,38.04
2022-08-07T10:41:46.341Z,37.97
2022-08-07T10:43:54.357Z,37.80
2022-08-07T10:46:20.740Z,37.59
2022-08-07T10:48:47.099Z,37.29
2022-08-07T10:51:16.965Z,36.96
2022-08-07T10:53:44.077Z,36.71
2022-08-07T10:56:06.286Z,36.49
2022-08-07T10:58:36.484Z,36.30
2022-08-07T11:00:59.151Z,36.13
2022-08-07T11:03:37.184Z,35.99
2022-08-07T11:05:51.856Z,36.09
2022-08-07T11:08:18.731Z,36.21
2022-08-07T11:10:47.662Z,36.24
2022-08-07T11:13:42.479Z,36.09
2022-08-07T11:15:37.988Z,35.80
2022-08-07T11:18:04.634Z,35.46
2022-08-07T11:20:31.202Z,35.19
2022-08-07T11:22:57.620Z,35.00
2022-08-07T11:25:24.008Z,34.85
2022-08-07T11:28:02.644Z,34.73
2022-08-07T11:30:18.516Z,34.68
2022-08-07T11:32:43.210Z,34.64
2022-08-07T11:35:09.644Z,34.51
2022-08-07T11:37:38.380Z,34.36
2022-08-07T11:40:03.711Z,34.15
2022-08-07T11:42:29.629Z,33.98
2022-08-07T11:44:57.563Z,33.80
2022-08-07T11:47:21.629Z,33.70
2022-08-07T11:50:18.632Z,33.52
2022-08-07T11:52:14.336Z,33.42
2022-08-07T11:54:40.839Z,33.42
2022-08-07T11:57:12.627Z,33.40
2022-08-07T12:00:12.419Z,33.36
2022-08-07T12:02:00.940Z,33.32
2022-08-07T12:04:26.429Z,33.30
2022-08-07T12:07:00.383Z,33.38
2022-08-07T12:09:23.214Z,33.46
2022-08-07T12:12:09.726Z,33.47
2022-08-07T12:14:12.094Z,33.47
2022-08-07T12:16:38.457Z,33.37
2022-08-07T12:19:04.862Z,33.31
2022-08-07T12:21:55.147Z,33.32
2022-08-07T12:24:07.599Z,33.40
2022-08-07T12:26:30.002Z,33.48
2022-08-07T12:28:53.849Z,33.62
2022-08-07T12:31:17.358Z,33.72
2022-08-07T12:34:00.623Z,33.81
2022-08-07T12:36:11.008Z,33.89
2022-08-07T12:38:42.964Z,33.93
2022-08-07T12:41:02.486Z,33.95
2022-08-07T12:44:01.799Z,33.94
2022-08-07T12:45:55.145Z,34.01
2022-08-07T12:48:28.491Z,33.94
2022-08-07T12:50:48.856Z,34.21
2022-08-07T12:53:17.715Z,34.49
2022-08-07T12:56:02.024Z,34.68
2022-08-07T12:58:07.034Z,34.79
2022-08-07T13:00:41.681Z,34.75
2022-08-07T13:02:59.879Z,34.66
2022-08-07T13:06:03.305Z,34.55
2022-08-07T13:08:13.771Z,34.25
2022-08-07T13:10:39.655Z,34.09
2022-08-07T13:12:47.420Z,33.99
2022-08-07T13:15:11.838Z,33.89
2022-08-07T13:17:40.829Z,33.86
2022-08-07T13:20:04.610Z,33.79
2022-08-07T13:22:31.782Z,33.72
2022-08-07T13:24:57.405Z,33.62
2022-08-07T13:27:23.797Z,33.57
2022-08-07T13:29:50.218Z,33.57
2022-08-07T13:32:31.095Z,33.57
2022-08-07T13:34:44.658Z,33.59
2022-08-07T13:37:10.983Z,33.63
2022-08-07T13:40:34.123Z,33.65
2022-08-07T13:42:02.122Z,33.65
2022-08-07T13:44:34.586Z,33.67
2022-08-07T13:46:54.906Z,33.68
2022-08-07T13:50:33.175Z,33.68
2022-08-07T13:52:22.843Z,33.68
2022-08-07T13:54:16.569Z,33.66
2022-08-07T13:56:51.599Z,33.64
2022-08-07T13:59:10.383Z,33.56
2022-08-07T14:01:33.428Z,33.50
2022-08-07T14:04:07.419Z,33.45
2022-08-07T14:06:26.058Z,33.37
2022-08-07T14:08:53.480Z,33.29
2022-08-07T14:11:19.132Z,33.21
2022-08-07T14:13:45.343Z,33.14
2022-08-07T14:16:15.981Z,33.06
2022-08-07T14:18:38.396Z,32.99
2022-08-07T14:21:08.420Z,32.93
2022-08-07T14:23:59.298Z,32.87
2022-08-07T14:25:57.160Z,32.82
2022-08-07T14:28:32.090Z,32.78
2022-08-07T14:30:52.219Z,32.75
2022-08-07T14:33:16.274Z,32.71
2022-08-07T14:35:44.659Z,32.61
2022-08-07T14:38:09.007Z,32.53
2022-08-07T14:40:35.614Z,32.49
2022-08-07T14:45:48.733Z,32.42
2022-08-07T14:47:58.792Z,32.35
2022-08-07T14:50:21.005Z,32.28
2022-08-07T14:52:47.372Z,32.23
2022-08-07T14:57:55.099Z,32.18
2022-08-07T15:00:07.554Z,32.19
2022-08-07T15:07:26.663Z,31.99
2022-08-07T15:09:58.797Z,31.91
2022-08-07T15:12:25.546Z,31.88
2022-08-07T15:14:56.131Z,31.86
2022-08-07T15:17:12.140Z,31.85
2022-08-07T15:20:31.380Z,31.87
2022-08-07T15:22:06.993Z,31.88
2022-08-07T15:25:14.891Z,31.79
2022-08-07T15:26:57.708Z,31.71
2022-08-07T15:30:04.435Z,31.65
2022-08-07T15:32:01.554Z,31.63
2022-08-07T15:34:17.327Z,31.62
2022-08-07T15:37:03.695Z,31.60
2022-08-07T15:44:02.454Z,31.44
2022-08-07T15:46:32.429Z,31.41
2022-08-07T15:51:21.589Z,31.36
2022-08-07T15:53:53.193Z,31.33
2022-08-07T15:56:14.327Z,31.31
2022-08-07T15:58:40.770Z,31.28
2022-08-07T16:01:07.191Z,31.28
2022-08-07T16:03:46.456Z,31.22
2022-08-07T16:05:59.903Z,31.11
2022-08-07T16:08:30.743Z,31.05
2022-08-07T16:10:52.653Z,30.98
2022-08-07T16:13:57.954Z,30.90
2022-08-07T16:15:58.009Z,30.83
2022-08-07T16:18:11.822Z,30.83
2022-08-07T16:20:38.251Z,30.84
2022-08-07T16:23:09.888Z,30.78
2022-08-07T16:25:55.505Z,30.82
2022-08-07T16:28:00.812Z,30.82
2022-08-07T16:30:30.217Z,30.77
2022-08-07T16:32:54.382Z,30.76
2022-08-07T16:35:50.373Z,30.76
2022-08-07T16:38:03.834Z,30.72
2022-08-07T16:40:22.992Z,30.69
2022-08-07T16:42:39.213Z,30.69
2022-08-07T16:45:24.455Z,30.69
2022-08-07T16:47:51.640Z,30.68
2022-08-07T16:50:28.672Z,30.67
2022-08-07T16:52:51.930Z,30.67
2022-08-07T16:54:54.845Z,30.68
2022-08-07T16:58:01.083Z,30.68
2022-08-07T16:59:46.829Z,30.69
2022-08-07T17:02:10.954Z,30.69
2022-08-07T17:04:52.967Z,30.66
2022-08-07T17:07:04.143Z,30.60
2022-08-07T17:10:06.939Z,30.54
2022-08-07T17:12:03.864Z,30.50
2022-08-07T17:14:23.376Z,30.46
2022-08-07T17:16:55.880Z,30.38
2022-08-07T17:19:16.608Z,30.32
2022-08-07T17:21:51.876Z,30.24
2022-08-07T17:24:12.647Z,30.17
2022-08-07T17:26:49.852Z,30.14
2022-08-07T17:29:04.630Z,30.11
2022-08-07T17:31:28.326Z,30.08
2022-08-07T17:34:18.102Z,30.03
2022-08-07T17:36:21.170Z,29.99
2022-08-07T17:38:47.460Z,29.97
2022-08-07T17:42:02.146Z,29.93
2022-08-07T17:44:02.321Z,29.87
2022-08-07T17:46:06.742Z,29.82
2022-08-07T17:48:33.107Z,29.79
2022-08-07T17:50:59.478Z,29.78
2022-08-07T17:54:00.751Z,29.74
2022-08-07T17:56:01.194Z,29.73
2022-08-07T17:58:30.149Z,29.67
2022-08-07T18:00:48.794Z,29.64
2022-08-07T18:03:11.349Z,29.59
2022-08-07T18:06:03.523Z,29.55
2022-08-07T18:08:04.072Z,29.51
2022-08-07T18:10:33.075Z,29.50
2022-08-07T18:12:56.814Z,29.50
2022-08-07T18:15:23.197Z,29.50
2022-08-07T18:18:39.729Z,29.50
2022-08-07T18:21:11.784Z,29.50
2022-08-07T18:22:42.322Z,29.47
2022-08-07T18:25:18.994Z,29.43
2022-08-07T18:27:39.241Z,29.37
2022-08-07T18:30:06.172Z,29.31
2022-08-07T18:32:28.327Z,29.29
2022-08-07T18:35:01.556Z,29.29
2022-08-07T18:38:53.681Z,29.26
2022-08-07T18:40:06.709Z,29.20
2022-08-07T18:42:13.492Z,29.23
2022-08-07T18:45:39.613Z,29.27
2022-08-07T18:47:06.207Z,29.27
2022-08-07T18:50:31.693Z,29.25
2022-08-07T18:52:51.786Z,29.24
2022-08-07T18:54:27.854Z,29.22
2022-08-07T18:56:58.250Z,29.17
2022-08-07T18:59:46.942Z,29.13
2022-08-07T19:02:19.428Z,29.09
2022-08-07T19:04:14.454Z,29.04
2022-08-07T19:06:37.387Z,29.02
2022-08-07T19:09:09.009Z,28.99
2022-08-07T19:11:36.731Z,28.96
2022-08-07T19:13:56.545Z,28.89
2022-08-07T19:17:01.438Z,28.86
2022-08-07T19:18:49.406Z,28.83
2022-08-07T19:21:47.484Z,28.78
2022-08-07T19:23:58.687Z,28.73
2022-08-07T19:26:24.106Z,28.70
2022-08-07T19:30:55.279Z,28.67
2022-08-07T19:31:38.193Z,28.67
2022-08-07T19:33:34.745Z,28.66
2022-08-07T19:35:54.125Z,28.64
2022-08-07T19:38:20.629Z,28.60
2022-08-07T19:40:50.048Z,28.58
2022-08-07T19:43:21.900Z,28.58
2022-08-07T19:46:09.844Z,28.54
2022-08-07T19:48:06.180Z,28.53
2022-08-07T19:50:44.079Z,28.54
2022-08-07T19:53:01.090Z,28.51
2022-08-07T19:55:25.357Z,28.44
2022-08-07T19:58:12.235Z,28.38
2022-08-07T20:00:27.993Z,28.35
2022-08-07T20:02:51.834Z,28.32
2022-08-07T20:05:10.941Z,28.29
2022-08-07T20:07:45.870Z,28.29
2022-08-07T20:10:35.352Z,28.28
2022-08-07T20:12:32.039Z,28.26
2022-08-07T20:14:58.680Z,28.24
2022-08-07T20:17:22.872Z,28.23
2022-08-07T20:19:58.237Z,28.25
2022-08-07T20:22:15.624Z,28.21
2022-08-07T20:24:41.988Z,28.17
2022-08-07T20:27:11.615Z,28.13
2022-08-07T20:29:48.704Z,28.11
2022-08-07T20:32:01.272Z,28.07
2022-08-07T20:34:49.340Z,27.97
2022-08-07T20:36:54.032Z,27.89
2022-08-07T20:40:01.361Z,27.88
2022-08-07T20:41:46.796Z,27.86
2022-08-07T20:44:13.422Z,27.81
2022-08-07T20:46:44.445Z,27.79
2022-08-07T20:50:00.112Z,27.74
2022-08-07T20:51:35.530Z,27.73
2022-08-07T20:54:03.729Z,27.74
2022-08-07T20:56:26.002Z,27.74
2022-08-07T20:58:53.186Z,27.71
2022-08-07T21:01:19.869Z,27.66
2022-08-07T21:04:01.081Z,27.61
2022-08-07T21:06:21.394Z,27.56
2022-08-07T21:08:40.775Z,27.55
2022-08-07T21:11:03.411Z,27.51
2022-08-07T21:13:57.967Z,27.47
2022-08-07T21:16:00.497Z,27.42
2022-08-07T21:18:27.839Z,27.43
2022-08-07T21:20:56.112Z,27.44
2022-08-07T21:23:15.552Z,27.43
2022-08-07T21:25:42.539Z,27.37
2022-08-07T21:28:08.137Z,27.36
2022-08-07T21:30:34.500Z,27.31
2022-08-07T21:33:00.902Z,27.20
2022-08-07T21:35:34.633Z,27.19
2022-08-07T21:37:57.791Z,27.13
2022-08-07T21:40:20.251Z,27.14
2022-08-07T21:42:48.361Z,27.11
2022-08-07T21:46:05.380Z,27.14
2022-08-07T21:47:39.277Z,27.11
2022-08-07T21:50:05.666Z,27.05
2022-08-07T21:52:33.375Z,27.01
2022-08-07T21:54:58.392Z,26.99
2022-08-07T21:57:39.840Z,26.98
2022-08-07T22:00:05.488Z,26.94
2022-08-07T22:02:17.632Z,26.98
2022-08-07T22:04:51.344Z,26.93
2022-08-07T22:07:10.396Z,26.81
2022-08-07T22:09:47.885Z,26.74
2022-08-07T22:12:07.252Z,26.69
2022-08-07T22:14:34.923Z,26.65
2022-08-07T22:16:55.975Z,26.60
2022-08-07T22:19:29.791Z,26.51
2022-08-07T22:22:04.912Z,26.63
2022-08-07T22:24:15.108Z,26.65
2022-08-07T22:26:44.571Z,26.71
2022-08-07T22:29:09.028Z,26.70
2022-08-07T22:31:59.407Z,26.65
2022-08-07T22:34:00.671Z,26.66
2022-08-07T22:36:27.038Z,26.66
2022-08-07T22:38:53.413Z,26.72
2022-08-07T22:41:20.100Z,26.67
2022-08-07T22:43:46.306Z,26.59
2022-08-07T22:47:02.191Z,26.58
2022-08-07T22:49:00.742Z,26.60
2022-08-07T22:51:05.391Z,26.59
2022-08-07T22:54:06.775Z,26.56
2022-08-07T22:55:58.147Z,26.42
2022-08-07T22:58:24.970Z,26.30
2022-08-07T23:00:51.022Z,26.31
2022-08-07T23:03:17.454Z,26.29
2022-08-07T23:06:10.074Z,26.23
2022-08-07T23:08:23.944Z,26.28
2022-08-07T23:10:42.087Z,26.22
2022-08-07T23:13:03.076Z,26.22
2022-08-07T23:16:05.824Z,26.28
2022-08-07T23:17:55.788Z,26.18
2022-08-07T23:20:40.229Z,26.11
2022-08-07T23:22:48.563Z,26.11
2022-08-07T23:25:14.951Z,26.08
2022-08-07T23:28:21.610Z,26.08
2022-08-07T23:30:37.430Z,26.08
2022-08-07T23:34:21.201Z,26.03
2022-08-07T23:35:01.025Z,26.04
2022-08-07T23:37:29.482Z,26.02
2022-08-07T23:39:55.488Z,25.97
2022-08-07T23:42:21.981Z,25.94
2022-08-07T23:44:46.100Z,25.89
2022-08-07T23:47:12.480Z,25.94
2022-08-07T23:49:49.787Z,25.93
2022-08-07T23:53:17.042Z,25.94
2022-08-07T23:54:44.607Z,26.02
2022-08-07T23:56:58.077Z,26.06
